sensor_id;sensor_type;location;lat;lon;timestamp;P1;durP1;ratioP1;P2;durP2;ratioP2
19867;SDS011;10096;51.112;6.776;2023-06-01T00:00:58;5.70;;;3.28;;
19867;SDS011;10096;51.112;6.776;2023-06-01T00:03:26;5.20;;;3.33;;
19867;SDS011;10096;51.112;6.776;2023-06-01T00:05:54;4.07;;;3.50;;
19867;SDS011;10096;51.112;6.776;2023-06-01T00:08:31;3.30;;;3.00;;
19867;SDS011;10096;51.112;6.776;2023-06-01T00:10:59;3.92;;;3.20;;
19867;SDS011;10096;51.112;6.776;2023-06-01T00:13:28;5.13;;;3.83;;
19867;SDS011;10096;51.112;6.776;2023-06-01T00:15:58;5.70;;;3.63;;
19867;SDS011;10096;51.112;6.776;2023-06-01T00:18:25;4.65;;;3.35;;
19867;SDS011;10096;51.112;6.776;2023-06-01T00:20:57;4.78;;;3.00;;
19867;SDS011;10096;51.112;6.776;2023-06-01T00:23:34;5.55;;;3.53;;
19867;SDS011;10096;51.112;6.776;2023-06-01T00:26:03;4.18;;;3.10;;
19867;SDS011;10096;51.112;6.776;2023-06-01T00:28:32;4.65;;;3.08;;
19867;SDS011;10096;51.112;6.776;2023-06-01T00:31:03;4.35;;;3.17;;
19867;SDS011;10096;51.112;6.776;2023-06-01T00:33:31;4.88;;;3.10;;
19867;SDS011;10096;51.112;6.776;2023-06-01T00:35:58;7.45;;;3.40;;
19867;SDS011;10096;51.112;6.776;2023-06-01T00:38:25;6.57;;;3.42;;
19867;SDS011;10096;51.112;6.776;2023-06-01T00:40:55;7.15;;;3.22;;
19867;SDS011;10096;51.112;6.776;2023-06-01T00:43:26;5.20;;;3.13;;
19867;SDS011;10096;51.112;6.776;2023-06-01T00:45:55;4.07;;;3.03;;
19867;SDS011;10096;51.112;6.776;2023-06-01T00:48:25;5.07;;;3.13;;
19867;SDS011;10096;51.112;6.776;2023-06-01T00:50:53;5.18;;;3.20;;
19867;SDS011;10096;51.112;6.776;2023-06-01T00:53:22;6.93;;;3.40;;
19867;SDS011;10096;51.112;6.776;2023-06-01T00:55:51;5.60;;;3.67;;
19867;SDS011;10096;51.112;6.776;2023-06-01T00:58:18;6.07;;;3.70;;
19867;SDS011;10096;51.112;6.776;2023-06-01T01:00:47;7.28;;;3.35;;
19867;SDS011;10096;51.112;6.776;2023-06-01T01:03:20;7.20;;;3.58;;
19867;SDS011;10096;51.112;6.776;2023-06-01T01:05:51;5.72;;;3.30;;
19867;SDS011;10096;51.112;6.776;2023-06-01T01:08:28;5.93;;;3.10;;
19867;SDS011;10096;51.112;6.776;2023-06-01T01:11:04;6.10;;;3.75;;
19867;SDS011;10096;51.112;6.776;2023-06-01T01:13:37;6.25;;;3.72;;
19867;SDS011;10096;51.112;6.776;2023-06-01T01:16:10;6.20;;;3.80;;
19867;SDS011;10096;51.112;6.776;2023-06-01T01:18:45;6.50;;;3.65;;
19867;SDS011;10096;51.112;6.776;2023-06-01T01:21:19;7.00;;;3.97;;
19867;SDS011;10096;51.112;6.776;2023-06-01T01:23:59;5.85;;;4.00;;
19867;SDS011;10096;51.112;6.776;2023-06-01T01:26:56;5.45;;;4.05;;
19867;SDS011;10096;51.112;6.776;2023-06-01T01:29:35;6.53;;;3.80;;
19867;SDS011;10096;51.112;6.776;2023-06-01T01:32:07;5.97;;;4.10;;
19867;SDS011;10096;51.112;6.776;2023-06-01T01:34:35;5.28;;;4.57;;
19867;SDS011;10096;51.112;6.776;2023-06-01T01:37:05;9.63;;;4.25;;
19867;SDS011;10096;51.112;6.776;2023-06-01T01:39:33;9.27;;;5.00;;
19867;SDS011;10096;51.112;6.776;2023-06-01T01:42:00;7.38;;;4.90;;
19867;SDS011;10096;51.112;6.776;2023-06-01T01:44:27;6.28;;;4.75;;
19867;SDS011;10096;51.112;6.776;2023-06-01T01:46:58;5.88;;;4.63;;
19867;SDS011;10096;51.112;6.776;2023-06-01T01:49:36;7.80;;;5.10;;
19867;SDS011;10096;51.112;6.776;2023-06-01T01:52:08;7.68;;;4.85;;
19867;SDS011;10096;51.112;6.776;2023-06-01T01:54:41;10.38;;;5.03;;
19867;SDS011;10096;51.112;6.776;2023-06-01T01:57:09;6.80;;;5.28;;
19867;SDS011;10096;51.112;6.776;2023-06-01T01:59:39;10.02;;;5.45;;
19867;SDS011;10096;51.112;6.776;2023-06-01T02:02:08;8.68;;;5.40;;
19867;SDS011;10096;51.112;6.776;2023-06-01T02:04:39;8.30;;;4.80;;
19867;SDS011;10096;51.112;6.776;2023-06-01T02:07:07;8.00;;;5.35;;
19867;SDS011;10096;51.112;6.776;2023-06-01T02:09:35;10.35;;;5.82;;
19867;SDS011;10096;51.112;6.776;2023-06-01T02:12:02;10.43;;;6.03;;
19867;SDS011;10096;51.112;6.776;2023-06-01T02:14:31;8.38;;;5.60;;
19867;SDS011;10096;51.112;6.776;2023-06-01T02:16:59;11.02;;;5.80;;
19867;SDS011;10096;51.112;6.776;2023-06-01T02:19:29;11.38;;;6.40;;
19867;SDS011;10096;51.112;6.776;2023-06-01T02:21:56;8.63;;;5.75;;
19867;SDS011;10096;51.112;6.776;2023-06-01T02:24:26;8.90;;;5.63;;
19867;SDS011;10096;51.112;6.776;2023-06-01T02:26:54;9.40;;;6.93;;
19867;SDS011;10096;51.112;6.776;2023-06-01T02:29:21;10.65;;;7.60;;
19867;SDS011;10096;51.112;6.776;2023-06-01T02:31:49;10.98;;;8.45;;
19867;SDS011;10096;51.112;6.776;2023-06-01T02:34:17;10.95;;;7.75;;
19867;SDS011;10096;51.112;6.776;2023-06-01T02:36:46;11.35;;;8.55;;
19867;SDS011;10096;51.112;6.776;2023-06-01T02:39:14;11.68;;;8.23;;
19867;SDS011;10096;51.112;6.776;2023-06-01T02:41:44;12.52;;;8.88;;
19867;SDS011;10096;51.112;6.776;2023-06-01T02:44:11;10.75;;;7.93;;
19867;SDS011;10096;51.112;6.776;2023-06-01T02:46:39;10.48;;;7.22;;
19867;SDS011;10096;51.112;6.776;2023-06-01T02:49:06;10.25;;;7.28;;
19867;SDS011;10096;51.112;6.776;2023-06-01T02:51:34;10.13;;;7.40;;
19867;SDS011;10096;51.112;6.776;2023-06-01T02:54:03;8.38;;;7.47;;
19867;SDS011;10096;51.112;6.776;2023-06-01T02:56:32;10.48;;;7.03;;
19867;SDS011;10096;51.112;6.776;2023-06-01T02:59:04;10.95;;;8.15;;
19867;SDS011;10096;51.112;6.776;2023-06-01T03:01:32;12.65;;;8.57;;
19867;SDS011;10096;51.112;6.776;2023-06-01T03:04:00;14.07;;;10.10;;
19867;SDS011;10096;51.112;6.776;2023-06-01T03:06:30;9.60;;;8.32;;
19867;SDS011;10096;51.112;6.776;2023-06-01T03:08:58;13.27;;;8.77;;
19867;SDS011;10096;51.112;6.776;2023-06-01T03:11:29;14.20;;;8.57;;
19867;SDS011;10096;51.112;6.776;2023-06-01T03:13:57;13.60;;;8.85;;
19867;SDS011;10096;51.112;6.776;2023-06-01T03:16:24;11.13;;;8.77;;
19867;SDS011;10096;51.112;6.776;2023-06-01T03:18:52;11.57;;;8.95;;
19867;SDS011;10096;51.112;6.776;2023-06-01T03:21:20;12.68;;;8.73;;
19867;SDS011;10096;51.112;6.776;2023-06-01T03:23:49;15.15;;;9.63;;
19867;SDS011;10096;51.112;6.776;2023-06-01T03:26:19;13.63;;;9.55;;
19867;SDS011;10096;51.112;6.776;2023-06-01T03:28:51;15.70;;;10.80;;
19867;SDS011;10096;51.112;6.776;2023-06-01T03:31:21;13.93;;;9.88;;
19867;SDS011;10096;51.112;6.776;2023-06-01T03:33:49;12.38;;;10.57;;
19867;SDS011;10096;51.112;6.776;2023-06-01T03:36:17;11.30;;;9.68;;
19867;SDS011;10096;51.112;6.776;2023-06-01T03:38:45;12.60;;;9.85;;
19867;SDS011;10096;51.112;6.776;2023-06-01T03:41:13;14.02;;;10.13;;
19867;SDS011;10096;51.112;6.776;2023-06-01T03:43:40;13.52;;;10.20;;
19867;SDS011;10096;51.112;6.776;2023-06-01T03:46:09;13.63;;;10.23;;
19867;SDS011;10096;51.112;6.776;2023-06-01T03:48:37;14.35;;;10.25;;
19867;SDS011;10096;51.112;6.776;2023-06-01T03:51:04;15.18;;;11.15;;
19867;SDS011;10096;51.112;6.776;2023-06-01T03:53:35;15.43;;;10.38;;
19867;SDS011;10096;51.112;6.776;2023-06-01T03:56:02;15.02;;;10.65;;
19867;SDS011;10096;51.112;6.776;2023-06-01T03:58:30;16.55;;;10.35;;
19867;SDS011;10096;51.112;6.776;2023-06-01T04:00:57;12.63;;;10.13;;
19867;SDS011;10096;51.112;6.776;2023-06-01T04:03:27;13.63;;;10.77;;
19867;SDS011;10096;51.112;6.776;2023-06-01T04:05:55;16.63;;;10.68;;
19867;SDS011;10096;51.112;6.776;2023-06-01T04:08:24;16.83;;;10.52;;
19867;SDS011;10096;51.112;6.776;2023-06-01T04:10:52;16.70;;;11.07;;
19867;SDS011;10096;51.112;6.776;2023-06-01T04:13:23;13.05;;;10.68;;
19867;SDS011;10096;51.112;6.776;2023-06-01T04:15:50;12.77;;;11.13;;
19867;SDS011;10096;51.112;6.776;2023-06-01T04:18:18;12.52;;;10.60;;
19867;SDS011;10096;51.112;6.776;2023-06-01T04:20:47;17.73;;;12.25;;
19867;SDS011;10096;51.112;6.776;2023-06-01T04:23:15;14.05;;;11.57;;
19867;SDS011;10096;51.112;6.776;2023-06-01T04:25:42;15.88;;;12.05;;
19867;SDS011;10096;51.112;6.776;2023-06-01T04:28:10;15.43;;;12.27;;
19867;SDS011;10096;51.112;6.776;2023-06-01T04:30:38;17.77;;;12.40;;
19867;SDS011;10096;51.112;6.776;2023-06-01T04:33:06;14.85;;;12.30;;
19867;SDS011;10096;51.112;6.776;2023-06-01T04:35:35;17.67;;;12.88;;
19867;SDS011;10096;51.112;6.776;2023-06-01T04:38:06;17.20;;;13.40;;
19867;SDS011;10096;51.112;6.776;2023-06-01T04:40:34;16.50;;;13.20;;
19867;SDS011;10096;51.112;6.776;2023-06-01T04:43:09;18.48;;;14.23;;
19867;SDS011;10096;51.112;6.776;2023-06-01T04:45:37;18.15;;;14.32;;
19867;SDS011;10096;51.112;6.776;2023-06-01T04:48:06;22.65;;;14.25;;
19867;SDS011;10096;51.112;6.776;2023-06-01T04:50:33;18.42;;;16.17;;
19867;SDS011;10096;51.112;6.776;2023-06-01T04:53:02;19.58;;;15.25;;
19867;SDS011;10096;51.112;6.776;2023-06-01T04:55:33;27.00;;;17.55;;
19867;SDS011;10096;51.112;6.776;2023-06-01T04:58:00;23.00;;;16.10;;
19867;SDS011;10096;51.112;6.776;2023-06-01T05:00:31;21.15;;;17.08;;
19867;SDS011;10096;51.112;6.776;2023-06-01T05:03:01;23.67;;;17.08;;
19867;SDS011;10096;51.112;6.776;2023-06-01T05:05:30;21.05;;;16.77;;
19867;SDS011;10096;51.112;6.776;2023-06-01T05:07:57;20.70;;;16.52;;
19867;SDS011;10096;51.112;6.776;2023-06-01T05:10:26;21.90;;;15.88;;
19867;SDS011;10096;51.112;6.776;2023-06-01T05:12:57;19.73;;;16.27;;
19867;SDS011;10096;51.112;6.776;2023-06-01T05:15:24;19.90;;;15.95;;
19867;SDS011;10096;51.112;6.776;2023-06-01T05:17:53;18.88;;;16.20;;
19867;SDS011;10096;51.112;6.776;2023-06-01T05:20:22;21.35;;;15.88;;
19867;SDS011;10096;51.112;6.776;2023-06-01T05:22:53;19.48;;;16.30;;
19867;SDS011;10096;51.112;6.776;2023-06-01T05:25:23;18.58;;;16.58;;
19867;SDS011;10096;51.112;6.776;2023-06-01T05:27:52;19.48;;;16.15;;
19867;SDS011;10096;51.112;6.776;2023-06-01T05:30:20;20.58;;;16.13;;
19867;SDS011;10096;51.112;6.776;2023-06-01T05:32:48;19.00;;;15.57;;
19867;SDS011;10096;51.112;6.776;2023-06-01T05:35:22;16.73;;;14.80;;
19867;SDS011;10096;51.112;6.776;2023-06-01T05:37:49;19.15;;;15.50;;
19867;SDS011;10096;51.112;6.776;2023-06-01T05:40:17;18.55;;;16.02;;
19867;SDS011;10096;51.112;6.776;2023-06-01T05:42:44;20.35;;;16.33;;
19867;SDS011;10096;51.112;6.776;2023-06-01T05:45:13;18.50;;;16.50;;
19867;SDS011;10096;51.112;6.776;2023-06-01T05:47:42;20.13;;;16.05;;
19867;SDS011;10096;51.112;6.776;2023-06-01T05:50:13;19.83;;;17.50;;
19867;SDS011;10096;51.112;6.776;2023-06-01T05:52:41;22.17;;;17.17;;
19867;SDS011;10096;51.112;6.776;2023-06-01T05:55:08;18.77;;;16.85;;
19867;SDS011;10096;51.112;6.776;2023-06-01T05:57:36;24.88;;;17.52;;
19867;SDS011;10096;51.112;6.776;2023-06-01T06:00:05;19.90;;;16.58;;
19867;SDS011;10096;51.112;6.776;2023-06-01T06:02:36;19.88;;;17.02;;
19867;SDS011;10096;51.112;6.776;2023-06-01T06:05:05;18.00;;;15.77;;
19867;SDS011;10096;51.112;6.776;2023-06-01T06:07:37;22.75;;;17.45;;
19867;SDS011;10096;51.112;6.776;2023-06-01T06:10:05;20.23;;;16.55;;
19867;SDS011;10096;51.112;6.776;2023-06-01T06:12:34;20.88;;;16.58;;
19867;SDS011;10096;51.112;6.776;2023-06-01T06:15:01;21.30;;;17.65;;
19867;SDS011;10096;51.112;6.776;2023-06-01T06:17:31;21.83;;;17.10;;
19867;SDS011;10096;51.112;6.776;2023-06-01T06:20:04;21.83;;;17.85;;
19867;SDS011;10096;51.112;6.776;2023-06-01T06:22:34;20.95;;;17.15;;
19867;SDS011;10096;51.112;6.776;2023-06-01T06:25:06;21.63;;;17.92;;
19867;SDS011;10096;51.112;6.776;2023-06-01T06:27:34;21.83;;;18.13;;
19867;SDS011;10096;51.112;6.776;2023-06-01T06:30:10;20.35;;;18.10;;
19867;SDS011;10096;51.112;6.776;2023-06-01T06:32:38;20.77;;;16.88;;
19867;SDS011;10096;51.112;6.776;2023-06-01T06:35:08;20.63;;;18.05;;
19867;SDS011;10096;51.112;6.776;2023-06-01T06:37:38;22.08;;;17.95;;
19867;SDS011;10096;51.112;6.776;2023-06-01T06:40:07;20.83;;;17.63;;
19867;SDS011;10096;51.112;6.776;2023-06-01T06:42:38;20.85;;;18.10;;
19867;SDS011;10096;51.112;6.776;2023-06-01T06:45:07;23.75;;;18.45;;
19867;SDS011;10096;51.112;6.776;2023-06-01T06:47:36;21.63;;;17.70;;
19867;SDS011;10096;51.112;6.776;2023-06-01T06:50:03;20.83;;;18.15;;
19867;SDS011;10096;51.112;6.776;2023-06-01T06:52:34;19.05;;;16.75;;
19867;SDS011;10096;51.112;6.776;2023-06-01T06:55:04;20.23;;;16.48;;
19867;SDS011;10096;51.112;6.776;2023-06-01T06:57:32;20.65;;;17.65;;
19867;SDS011;10096;51.112;6.776;2023-06-01T07:00:00;22.83;;;17.50;;
19867;SDS011;10096;51.112;6.776;2023-06-01T07:02:30;23.27;;;19.08;;
19867;SDS011;10096;51.112;6.776;2023-06-01T07:04:58;19.08;;;17.10;;
19867;SDS011;10096;51.112;6.776;2023-06-01T07:07:26;18.58;;;15.95;;
19867;SDS011;10096;51.112;6.776;2023-06-01T07:09:55;20.55;;;17.38;;
19867;SDS011;10096;51.112;6.776;2023-06-01T07:12:25;19.25;;;17.20;;
19867;SDS011;10096;51.112;6.776;2023-06-01T07:14:58;19.60;;;17.45;;
19867;SDS011;10096;51.112;6.776;2023-06-01T07:17:26;19.65;;;17.15;;
19867;SDS011;10096;51.112;6.776;2023-06-01T07:19:56;21.67;;;17.65;;
19867;SDS011;10096;51.112;6.776;2023-06-01T07:22:24;19.35;;;17.02;;
19867;SDS011;10096;51.112;6.776;2023-06-01T07:24:55;20.30;;;17.90;;
19867;SDS011;10096;51.112;6.776;2023-06-01T07:27:23;17.70;;;15.85;;
19867;SDS011;10096;51.112;6.776;2023-06-01T07:29:51;20.95;;;18.33;;
19867;SDS011;10096;51.112;6.776;2023-06-01T07:32:21;19.63;;;17.52;;
19867;SDS011;10096;51.112;6.776;2023-06-01T07:34:48;21.73;;;19.40;;
19867;SDS011;10096;51.112;6.776;2023-06-01T07:37:16;21.33;;;19.17;;
19867;SDS011;10096;51.112;6.776;2023-06-01T07:39:47;21.40;;;19.10;;
19867;SDS011;10096;51.112;6.776;2023-06-01T07:42:17;22.60;;;20.13;;
19867;SDS011;10096;51.112;6.776;2023-06-01T07:44:45;21.33;;;18.77;;
19867;SDS011;10096;51.112;6.776;2023-06-01T07:47:16;21.13;;;18.92;;
19867;SDS011;10096;51.112;6.776;2023-06-01T07:49:44;22.40;;;19.98;;
19867;SDS011;10096;51.112;6.776;2023-06-01T07:52:12;22.33;;;19.95;;
19867;SDS011;10096;51.112;6.776;2023-06-01T07:54:42;20.98;;;18.73;;
19867;SDS011;10096;51.112;6.776;2023-06-01T07:57:11;22.63;;;20.50;;
19867;SDS011;10096;51.112;6.776;2023-06-01T07:59:39;18.77;;;17.08;;
19867;SDS011;10096;51.112;6.776;2023-06-01T08:02:10;21.15;;;18.90;;
19867;SDS011;10096;51.112;6.776;2023-06-01T08:04:39;21.98;;;19.67;;
19867;SDS011;10096;51.112;6.776;2023-06-01T08:07:07;20.27;;;18.45;;
19867;SDS011;10096;51.112;6.776;2023-06-01T08:09:37;20.33;;;18.23;;
19867;SDS011;10096;51.112;6.776;2023-06-01T08:12:05;21.25;;;19.30;;
19867;SDS011;10096;51.112;6.776;2023-06-01T08:14:36;22.15;;;20.02;;
19867;SDS011;10096;51.112;6.776;2023-06-01T08:17:08;21.75;;;19.67;;
19867;SDS011;10096;51.112;6.776;2023-06-01T08:19:37;21.88;;;19.77;;
19867;SDS011;10096;51.112;6.776;2023-06-01T08:22:07;20.23;;;18.35;;
19867;SDS011;10096;51.112;6.776;2023-06-01T08:24:38;20.05;;;18.13;;
19867;SDS011;10096;51.112;6.776;2023-06-01T08:27:17;21.20;;;19.20;;
19867;SDS011;10096;51.112;6.776;2023-06-01T08:29:46;21.10;;;18.90;;
19867;SDS011;10096;51.112;6.776;2023-06-01T08:32:18;21.65;;;19.55;;
19867;SDS011;10096;51.112;6.776;2023-06-01T08:34:46;22.60;;;20.40;;
19867;SDS011;10096;51.112;6.776;2023-06-01T08:37:15;19.58;;;17.60;;
19867;SDS011;10096;51.112;6.776;2023-06-01T08:39:42;20.52;;;18.55;;
19867;SDS011;10096;51.112;6.776;2023-06-01T08:42:13;20.80;;;19.00;;
19867;SDS011;10096;51.112;6.776;2023-06-01T08:44:47;20.70;;;18.80;;
19867;SDS011;10096;51.112;6.776;2023-06-01T08:47:20;22.58;;;20.45;;
19867;SDS011;10096;51.112;6.776;2023-06-01T08:49:50;21.95;;;19.80;;
19867;SDS011;10096;51.112;6.776;2023-06-01T08:52:19;23.05;;;20.75;;
19867;SDS011;10096;51.112;6.776;2023-06-01T08:54:48;20.67;;;18.63;;
19867;SDS011;10096;51.112;6.776;2023-06-01T08:57:16;23.70;;;21.30;;
19867;SDS011;10096;51.112;6.776;2023-06-01T08:59:45;21.55;;;19.55;;
19867;SDS011;10096;51.112;6.776;2023-06-01T09:02:13;21.15;;;19.05;;
19867;SDS011;10096;51.112;6.776;2023-06-01T09:04:43;23.10;;;20.90;;
19867;SDS011;10096;51.112;6.776;2023-06-01T09:07:11;20.20;;;18.08;;
19867;SDS011;10096;51.112;6.776;2023-06-01T09:09:39;20.02;;;18.15;;
19867;SDS011;10096;51.112;6.776;2023-06-01T09:12:19;21.50;;;19.33;;
19867;SDS011;10096;51.112;6.776;2023-06-01T09:14:51;26.50;;;23.98;;
19867;SDS011;10096;51.112;6.776;2023-06-01T09:17:36;27.58;;;24.75;;
19867;SDS011;10096;51.112;6.776;2023-06-01T09:20:10;24.90;;;22.20;;
19867;SDS011;10096;51.112;6.776;2023-06-01T09:22:39;24.52;;;19.77;;
19867;SDS011;10096;51.112;6.776;2023-06-01T09:25:08;26.35;;;23.65;;
19867;SDS011;10096;51.112;6.776;2023-06-01T09:31:39;28.02;;;25.13;;
19867;SDS011;10096;51.112;6.776;2023-06-01T09:34:12;27.02;;;24.20;;
19867;SDS011;10096;51.112;6.776;2023-06-01T09:36:45;31.27;;;27.80;;
19867;SDS011;10096;51.112;6.776;2023-06-01T09:39:14;31.63;;;28.27;;
19867;SDS011;10096;51.112;6.776;2023-06-01T09:41:51;33.10;;;29.50;;
19867;SDS011;10096;51.112;6.776;2023-06-01T09:44:25;33.78;;;30.38;;
19867;SDS011;10096;51.112;6.776;2023-06-01T09:46:54;33.45;;;29.77;;
19867;SDS011;10096;51.112;6.776;2023-06-01T09:49:25;31.25;;;27.77;;
19867;SDS011;10096;51.112;6.776;2023-06-01T09:52:07;31.77;;;28.38;;
19867;SDS011;10096;51.112;6.776;2023-06-01T09:54:38;32.03;;;28.33;;
19867;SDS011;10096;51.112;6.776;2023-06-01T09:57:09;30.33;;;27.17;;
19867;SDS011;10096;51.112;6.776;2023-06-01T09:59:41;32.25;;;28.90;;
19867;SDS011;10096;51.112;6.776;2023-06-01T10:02:11;31.67;;;28.50;;
19867;SDS011;10096;51.112;6.776;2023-06-01T10:04:41;35.33;;;28.25;;
19867;SDS011;10096;51.112;6.776;2023-06-01T10:07:13;32.22;;;28.90;;
19867;SDS011;10096;51.112;6.776;2023-06-01T10:09:45;32.50;;;29.10;;
19867;SDS011;10096;51.112;6.776;2023-06-01T10:12:16;32.55;;;29.25;;
19867;SDS011;10096;51.112;6.776;2023-06-01T10:14:45;32.10;;;28.70;;
19867;SDS011;10096;51.112;6.776;2023-06-01T10:17:13;32.50;;;29.20;;
19867;SDS011;10096;51.112;6.776;2023-06-01T10:19:55;33.83;;;29.77;;
19867;SDS011;10096;51.112;6.776;2023-06-01T10:22:26;33.45;;;28.52;;
19867;SDS011;10096;51.112;6.776;2023-06-01T10:24:58;33.03;;;29.35;;
19867;SDS011;10096;51.112;6.776;2023-06-01T10:27:29;31.35;;;28.15;;
19867;SDS011;10096;51.112;6.776;2023-06-01T10:30:02;30.42;;;27.13;;
19867;SDS011;10096;51.112;6.776;2023-06-01T10:32:45;27.80;;;24.85;;
19867;SDS011;10096;51.112;6.776;2023-06-01T10:38:26;26.45;;;23.33;;
19867;SDS011;10096;51.112;6.776;2023-06-01T10:40:54;24.63;;;22.13;;
19867;SDS011;10096;51.112;6.776;2023-06-01T10:43:55;28.42;;;23.10;;
19867;SDS011;10096;51.112;6.776;2023-06-01T10:46:41;25.52;;;22.52;;
19867;SDS011;10096;51.112;6.776;2023-06-01T10:49:10;25.60;;;21.45;;
19867;SDS011;10096;51.112;6.776;2023-06-01T10:51:41;20.15;;;18.08;;
19867;SDS011;10096;51.112;6.776;2023-06-01T10:54:24;23.15;;;20.70;;
19867;SDS011;10096;51.112;6.776;2023-06-01T11:02:44;22.83;;;16.95;;
19867;SDS011;10096;51.112;6.776;2023-06-01T11:05:37;19.42;;;16.73;;
19867;SDS011;10096;51.112;6.776;2023-06-01T11:11:20;18.00;;;16.15;;
19867;SDS011;10096;51.112;6.776;2023-06-01T11:14:07;18.45;;;15.40;;
19867;SDS011;10096;51.112;6.776;2023-06-01T11:16:36;15.73;;;13.48;;
19867;SDS011;10096;51.112;6.776;2023-06-01T11:19:07;16.30;;;13.50;;
19867;SDS011;10096;51.112;6.776;2023-06-01T11:21:39;14.65;;;12.48;;
19867;SDS011;10096;51.112;6.776;2023-06-01T11:24:08;15.57;;;13.57;;
19867;SDS011;10096;51.112;6.776;2023-06-01T11:26:41;15.95;;;13.98;;
19867;SDS011;10096;51.112;6.776;2023-06-01T11:29:12;14.20;;;12.70;;
19867;SDS011;10096;51.112;6.776;2023-06-01T11:31:43;15.90;;;12.95;;
19867;SDS011;10096;51.112;6.776;2023-06-01T11:34:12;41.00;;;37.55;;
19867;SDS011;10096;51.112;6.776;2023-06-01T11:36:46;15.50;;;13.13;;
19867;SDS011;10096;51.112;6.776;2023-06-01T11:39:18;17.65;;;15.73;;
19867;SDS011;10096;51.112;6.776;2023-06-01T11:41:52;17.88;;;12.30;;
19867;SDS011;10096;51.112;6.776;2023-06-01T11:44:30;18.30;;;12.90;;
19867;SDS011;10096;51.112;6.776;2023-06-01T11:46:59;15.27;;;12.00;;
19867;SDS011;10096;51.112;6.776;2023-06-01T11:49:27;16.15;;;12.15;;
19867;SDS011;10096;51.112;6.776;2023-06-01T11:51:56;15.73;;;12.63;;
19867;SDS011;10096;51.112;6.776;2023-06-01T11:54:27;22.17;;;12.10;;
19867;SDS011;10096;51.112;6.776;2023-06-01T11:56:57;16.15;;;11.27;;
19867;SDS011;10096;51.112;6.776;2023-06-01T11:59:26;15.95;;;12.70;;
19867;SDS011;10096;51.112;6.776;2023-06-01T12:02:03;15.93;;;11.25;;
19867;SDS011;10096;51.112;6.776;2023-06-01T12:04:56;14.07;;;11.02;;
19867;SDS011;10096;51.112;6.776;2023-06-01T12:07:36;13.30;;;11.60;;
19867;SDS011;10096;51.112;6.776;2023-06-01T12:10:12;15.90;;;12.23;;
19867;SDS011;10096;51.112;6.776;2023-06-01T12:12:43;17.27;;;13.27;;
19867;SDS011;10096;51.112;6.776;2023-06-01T12:15:12;17.15;;;12.18;;
19867;SDS011;10096;51.112;6.776;2023-06-01T12:17:46;17.98;;;13.07;;
19867;SDS011;10096;51.112;6.776;2023-06-01T12:23:00;14.20;;;11.38;;
19867;SDS011;10096;51.112;6.776;2023-06-01T12:25:50;19.13;;;13.00;;
19867;SDS011;10096;51.112;6.776;2023-06-01T12:28:20;18.98;;;13.70;;
19867;SDS011;10096;51.112;6.776;2023-06-01T12:30:57;17.73;;;12.73;;
19867;SDS011;10096;51.112;6.776;2023-06-01T12:33:37;18.75;;;12.95;;
19867;SDS011;10096;51.112;6.776;2023-06-01T12:36:05;19.13;;;12.63;;
19867;SDS011;10096;51.112;6.776;2023-06-01T12:38:34;15.48;;;12.30;;
19867;SDS011;10096;51.112;6.776;2023-06-01T12:41:05;12.77;;;10.13;;
19867;SDS011;10096;51.112;6.776;2023-06-01T12:43:35;17.92;;;12.43;;
19867;SDS011;10096;51.112;6.776;2023-06-01T12:46:04;15.27;;;10.93;;
19867;SDS011;10096;51.112;6.776;2023-06-01T12:48:35;13.15;;;10.43;;
19867;SDS011;10096;51.112;6.776;2023-06-01T12:51:04;17.08;;;12.23;;
19867;SDS011;10096;51.112;6.776;2023-06-01T12:53:34;14.80;;;11.52;;
19867;SDS011;10096;51.112;6.776;2023-06-01T12:56:02;13.52;;;10.35;;
19867;SDS011;10096;51.112;6.776;2023-06-01T12:58:30;15.10;;;9.85;;
19867;SDS011;10096;51.112;6.776;2023-06-01T13:01:01;14.40;;;10.82;;
19867;SDS011;10096;51.112;6.776;2023-06-01T13:03:34;14.20;;;10.68;;
19867;SDS011;10096;51.112;6.776;2023-06-01T13:06:02;19.52;;;10.25;;
19867;SDS011;10096;51.112;6.776;2023-06-01T13:08:30;15.35;;;10.73;;
19867;SDS011;10096;51.112;6.776;2023-06-01T13:10:58;19.25;;;11.40;;
19867;SDS011;10096;51.112;6.776;2023-06-01T13:13:26;16.30;;;10.05;;
19867;SDS011;10096;51.112;6.776;2023-06-01T13:15:54;16.48;;;10.70;;
19867;SDS011;10096;51.112;6.776;2023-06-01T13:18:23;16.42;;;11.15;;
19867;SDS011;10096;51.112;6.776;2023-06-01T13:20:52;13.43;;;10.93;;
19867;SDS011;10096;51.112;6.776;2023-06-01T13:23:21;15.43;;;11.80;;
19867;SDS011;10096;51.112;6.776;2023-06-01T13:25:49;14.75;;;10.82;;
19867;SDS011;10096;51.112;6.776;2023-06-01T13:28:17;16.50;;;11.15;;
19867;SDS011;10096;51.112;6.776;2023-06-01T13:30:46;16.52;;;12.27;;
19867;SDS011;10096;51.112;6.776;2023-06-01T13:33:15;15.55;;;11.18;;
19867;SDS011;10096;51.112;6.776;2023-06-01T13:35:45;13.20;;;11.15;;
19867;SDS011;10096;51.112;6.776;2023-06-01T13:38:12;19.35;;;11.95;;
19867;SDS011;10096;51.112;6.776;2023-06-01T13:40:45;17.95;;;12.02;;
19867;SDS011;10096;51.112;6.776;2023-06-01T13:43:13;16.50;;;11.40;;
19867;SDS011;10096;51.112;6.776;2023-06-01T13:45:40;14.98;;;12.35;;
19867;SDS011;10096;51.112;6.776;2023-06-01T13:48:08;17.08;;;12.38;;
19867;SDS011;10096;51.112;6.776;2023-06-01T13:50:36;14.93;;;11.50;;
19867;SDS011;10096;51.112;6.776;2023-06-01T13:53:07;12.70;;;10.82;;
19867;SDS011;10096;51.112;6.776;2023-06-01T13:55:34;14.98;;;11.27;;
19867;SDS011;10096;51.112;6.776;2023-06-01T13:58:03;16.65;;;11.20;;
19867;SDS011;10096;51.112;6.776;2023-06-01T14:00:31;11.38;;;10.20;;
19867;SDS011;10096;51.112;6.776;2023-06-01T14:02:59;13.93;;;9.93;;
19867;SDS011;10096;51.112;6.776;2023-06-01T14:05:27;16.92;;;11.40;;
19867;SDS011;10096;51.112;6.776;2023-06-01T14:08:00;12.32;;;11.05;;
19867;SDS011;10096;51.112;6.776;2023-06-01T14:10:31;11.68;;;10.02;;
19867;SDS011;10096;51.112;6.776;2023-06-01T14:12:59;14.52;;;10.73;;
19867;SDS011;10096;51.112;6.776;2023-06-01T14:15:26;15.48;;;11.55;;
19867;SDS011;10096;51.112;6.776;2023-06-01T14:17:57;14.57;;;10.15;;
19867;SDS011;10096;51.112;6.776;2023-06-01T14:20:25;14.85;;;9.93;;
19867;SDS011;10096;51.112;6.776;2023-06-01T14:22:53;14.02;;;9.88;;
19867;SDS011;10096;51.112;6.776;2023-06-01T14:25:25;13.70;;;10.35;;
19867;SDS011;10096;51.112;6.776;2023-06-01T14:27:54;11.40;;;9.25;;
19867;SDS011;10096;51.112;6.776;2023-06-01T14:30:23;12.45;;;10.20;;
19867;SDS011;10096;51.112;6.776;2023-06-01T14:32:52;16.05;;;10.15;;
19867;SDS011;10096;51.112;6.776;2023-06-01T14:35:19;15.10;;;10.23;;
19867;SDS011;10096;51.112;6.776;2023-06-01T14:37:47;12.70;;;9.98;;
19867;SDS011;10096;51.112;6.776;2023-06-01T14:40:14;11.55;;;9.85;;
19867;SDS011;10096;51.112;6.776;2023-06-01T14:42:42;15.25;;;9.88;;
19867;SDS011;10096;51.112;6.776;2023-06-01T14:45:11;11.10;;;9.15;;
19867;SDS011;10096;51.112;6.776;2023-06-01T14:47:38;12.32;;;9.45;;
19867;SDS011;10096;51.112;6.776;2023-06-01T14:50:07;12.25;;;9.82;;
19867;SDS011;10096;51.112;6.776;2023-06-01T14:52:38;12.68;;;9.40;;
19867;SDS011;10096;51.112;6.776;2023-06-01T14:55:10;13.75;;;8.85;;
19867;SDS011;10096;51.112;6.776;2023-06-01T14:57:38;12.07;;;9.57;;
19867;SDS011;10096;51.112;6.776;2023-06-01T15:00:08;12.35;;;10.07;;
19867;SDS011;10096;51.112;6.776;2023-06-01T15:02:39;12.65;;;10.05;;
19867;SDS011;10096;51.112;6.776;2023-06-01T15:05:08;10.25;;;9.25;;